» Metar & Tafor

01 September 2019
METAR
Pukul : 06.00 UTC
Isi :

METAR WAGI 180600Z 32004KT 1800 RA FEW009CB BKN010 23/23 Q1010 BECMG AT0700 4000 -RA RMK CB OVER THE FIELD=


10 Juni 2019
TAFOR
Pukul : 06 - 18 UTC
Isi :

TAF WAGI 180500Z 1806/1818 34005KT 1500 RA FEW009CB BKN010 BECMG 1806/1808 4000 -RA= 


Hal: << First | < Prev | 1 | Next > | Last >>